Chuuk, Federated States of Micronesia
Current Conditions -  °F | °C
As of 6:52 AM on Wednesday 22 Oct 2014 (Local Time) from PTKK Reporting Station
Scattered Clouds Scattered Clouds  
Wind Chill: 83°   Ceiling: Unl
Heat Index: 92°   Visibility: 15mi
Dew Point: 78°   Wind: 3mph
Humidity: 85%   Direction: NA
Pressure: 29.81"   Gusts: NA
Location:  7.47°N, 151.85°E
Report Text: PTKK 212052Z VRB03KT 15SM FEW014 SCT300 28/26 A2981 RMK SLP098 8/101 T02820255 53014
Loading
Personal Weather Stations






























Interactive Weather Map
Tropical Storm Tracking
New forecast layout! Learn more

10-Day Weather Forecast

Advertisements
Track Severe Weather on mobile